createdAt,value
2018-09-27T00:01:28.386Z,15.14
2018-09-27T00:03:56.943Z,15.14
2018-09-27T00:06:25.463Z,15.16
2018-09-27T00:08:54.028Z,15.16
2018-09-27T00:11:22.543Z,15.17
2018-09-27T00:13:51.077Z,15.16
2018-09-27T00:16:19.602Z,15.18
2018-09-27T00:18:48.153Z,15.17
2018-09-27T00:21:16.673Z,15.17
2018-09-27T00:23:45.202Z,15.17
2018-09-27T00:26:13.952Z,15.16
2018-09-27T00:28:42.625Z,15.14
2018-09-27T00:31:11.167Z,15.12
2018-09-27T00:33:39.719Z,15.13
2018-09-27T00:36:08.302Z,15.12
2018-09-27T00:38:36.823Z,15.12
2018-09-27T00:41:05.425Z,15.12
2018-09-27T00:43:33.952Z,15.11
2018-09-27T00:46:02.491Z,15.11
2018-09-27T00:48:31.006Z,15.12
2018-09-27T00:50:59.585Z,15.12
2018-09-27T00:53:28.100Z,15.13
2018-09-27T00:55:56.657Z,15.12
2018-09-27T00:58:25.168Z,15.12
2018-09-27T01:00:53.707Z,15.11
2018-09-27T01:03:22.217Z,15.09
2018-09-27T01:05:50.755Z,15.08
2018-09-27T01:08:19.275Z,15.06
2018-09-27T01:10:47.821Z,15.07
2018-09-27T01:13:16.327Z,15.08
2018-09-27T01:15:44.892Z,15.09
2018-09-27T01:18:13.412Z,15.09
2018-09-27T01:20:41.960Z,15.10
2018-09-27T01:23:10.472Z,15.13
2018-09-27T01:25:39.005Z,15.14
2018-09-27T01:28:07.527Z,15.14
2018-09-27T01:30:36.194Z,15.14
2018-09-27T01:33:04.757Z,15.14
2018-09-27T01:35:33.309Z,15.14
2018-09-27T01:38:01.837Z,15.14
2018-09-27T01:40:30.365Z,15.11
2018-09-27T01:42:58.883Z,15.12
2018-09-27T01:45:27.412Z,15.15
2018-09-27T01:47:55.936Z,15.14
2018-09-27T01:50:24.474Z,15.17
2018-09-27T01:52:53.468Z,15.19
2018-09-27T01:55:22.069Z,15.17
2018-09-27T01:57:50.588Z,15.16
2018-09-27T02:00:19.159Z,15.14
2018-09-27T02:02:47.683Z,15.13
2018-09-27T02:05:16.225Z,15.15
2018-09-27T02:07:44.749Z,15.15
2018-09-27T02:10:13.301Z,15.15
2018-09-27T02:12:41.825Z,15.17
2018-09-27T02:15:10.359Z,15.18
2018-09-27T02:17:39.123Z,15.19
2018-09-27T02:20:07.686Z,15.20
2018-09-27T02:22:36.183Z,15.18
2018-09-27T02:25:04.780Z,15.22
2018-09-27T02:27:33.314Z,15.20
2018-09-27T02:30:01.827Z,15.20
2018-09-27T02:32:30.390Z,15.20
2018-09-27T02:34:58.906Z,15.20
2018-09-27T02:37:27.421Z,15.23
2018-09-27T02:39:55.945Z,15.23
2018-09-27T02:42:24.464Z,15.24
2018-09-27T02:44:52.968Z,15.26
2018-09-27T02:47:21.621Z,15.26
2018-09-27T02:49:50.129Z,15.28
2018-09-27T02:52:18.666Z,15.28
2018-09-27T02:54:47.188Z,15.26
2018-09-27T02:57:15.711Z,15.28
2018-09-27T02:59:44.202Z,15.29
2018-09-27T03:02:12.725Z,15.28
2018-09-27T03:04:41.225Z,15.27
2018-09-27T03:07:09.746Z,15.26
2018-09-27T03:09:38.243Z,15.28
2018-09-27T03:12:06.869Z,15.26
2018-09-27T03:14:35.407Z,15.27
2018-09-27T03:17:03.963Z,15.26
2018-09-27T03:19:32.458Z,15.25
2018-09-27T03:22:00.985Z,15.26
2018-09-27T03:24:29.517Z,15.30
2018-09-27T03:26:58.035Z,15.30
2018-09-27T03:29:26.628Z,15.30
2018-09-27T03:31:55.194Z,15.28
2018-09-27T03:34:23.717Z,15.27
2018-09-27T03:36:52.237Z,15.27
2018-09-27T03:39:20.748Z,15.29
2018-09-27T03:41:49.269Z,15.29
2018-09-27T03:44:17.763Z,15.29
2018-09-27T03:46:46.289Z,15.28
2018-09-27T03:49:14.789Z,15.28
2018-09-27T03:51:43.306Z,15.28
2018-09-27T03:54:11.833Z,15.26
2018-09-27T03:56:40.340Z,15.23
2018-09-27T03:59:08.864Z,15.24
2018-09-27T04:01:37.387Z,15.24
2018-09-27T04:04:05.896Z,15.23
2018-09-27T04:06:34.413Z,15.23
2018-09-27T04:09:02.959Z,15.24
2018-09-27T04:11:31.492Z,15.23
2018-09-27T04:13:59.999Z,15.25
2018-09-27T04:16:28.618Z,15.25
2018-09-27T04:18:57.115Z,15.24
2018-09-27T04:21:25.640Z,15.23
2018-09-27T04:23:54.161Z,15.22
2018-09-27T04:26:22.667Z,15.25
2018-09-27T04:28:51.186Z,15.22
2018-09-27T04:31:19.686Z,15.19
2018-09-27T04:33:48.268Z,15.17
2018-09-27T04:36:16.757Z,15.17
2018-09-27T04:38:45.275Z,15.16
2018-09-27T04:41:13.772Z,15.14
2018-09-27T04:43:42.330Z,15.15
2018-09-27T04:46:10.826Z,15.14
2018-09-27T04:48:39.352Z,15.13
2018-09-27T04:51:07.866Z,15.11
2018-09-27T04:53:36.939Z,15.10
2018-09-27T04:56:05.446Z,15.10
2018-09-27T04:58:33.958Z,15.07
2018-09-27T05:01:02.485Z,15.06
2018-09-27T05:03:31.013Z,15.06
2018-09-27T05:05:59.514Z,15.06
2018-09-27T05:08:28.069Z,15.04
2018-09-27T05:10:56.607Z,15.04
2018-09-27T05:13:25.165Z,15.04
2018-09-27T05:15:53.705Z,15.03
2018-09-27T05:18:22.232Z,15.03
2018-09-27T05:20:50.742Z,15.04
2018-09-27T05:23:19.275Z,15.03
2018-09-27T05:25:47.786Z,15.01
2018-09-27T05:28:16.317Z,15.00
2018-09-27T05:30:44.818Z,14.98
2018-09-27T05:33:13.430Z,14.91
2018-09-27T05:35:41.925Z,14.81
2018-09-27T05:38:10.446Z,14.77
2018-09-27T05:40:38.956Z,14.77
2018-09-27T05:43:08.091Z,14.76
2018-09-27T05:45:36.688Z,14.80
2018-09-27T05:48:05.373Z,14.85
2018-09-27T05:50:33.893Z,14.88
2018-09-27T05:53:02.465Z,14.92
2018-09-27T05:55:30.954Z,14.95
2018-09-27T05:57:59.468Z,15.00
2018-09-27T06:00:27.979Z,15.05
2018-09-27T06:02:56.514Z,15.06
2018-09-27T06:05:25.032Z,15.08
2018-09-27T06:07:53.553Z,15.10
2018-09-27T06:10:22.101Z,15.14
2018-09-27T06:12:50.640Z,15.16
2018-09-27T06:15:19.146Z,15.20
2018-09-27T06:17:47.673Z,15.23
2018-09-27T06:20:16.176Z,15.27
2018-09-27T06:22:44.709Z,15.34
2018-09-27T06:25:13.213Z,15.39
2018-09-27T06:27:41.748Z,15.44
2018-09-27T06:30:10.338Z,15.47
2018-09-27T06:32:39.084Z,15.51
2018-09-27T06:35:07.706Z,15.52
2018-09-27T06:37:36.515Z,15.59
2018-09-27T06:40:05.269Z,15.60
2018-09-27T06:42:33.770Z,15.61
2018-09-27T06:45:02.307Z,15.65
2018-09-27T06:47:30.821Z,15.67
2018-09-27T06:49:59.353Z,15.69
2018-09-27T06:52:27.858Z,15.67
2018-09-27T06:54:56.399Z,15.71
2018-09-27T06:57:24.918Z,15.81
2018-09-27T06:59:53.442Z,16.09
2018-09-27T07:02:21.946Z,16.45
2018-09-27T07:04:50.550Z,16.69
2018-09-27T07:07:19.124Z,16.69
2018-09-27T07:09:47.657Z,16.62
2018-09-27T07:12:16.321Z,16.54
2018-09-27T07:14:44.743Z,16.45
2018-09-27T07:17:13.259Z,16.44
2018-09-27T07:19:41.806Z,16.44
2018-09-27T07:22:10.326Z,16.43
2018-09-27T07:24:38.858Z,16.36
2018-09-27T07:27:07.371Z,16.35
2018-09-27T07:29:35.957Z,16.35
2018-09-27T07:32:04.497Z,16.36
2018-09-27T07:34:33.029Z,16.42
2018-09-27T07:37:01.576Z,16.39
2018-09-27T07:39:30.113Z,16.36
2018-09-27T07:41:58.622Z,16.32
2018-09-27T07:44:27.212Z,16.37
2018-09-27T07:46:55.695Z,16.44
2018-09-27T07:49:24.221Z,16.45
2018-09-27T07:51:52.741Z,16.52
2018-09-27T07:54:21.360Z,16.56
2018-09-27T07:56:49.826Z,16.56
2018-09-27T07:59:18.360Z,16.59
2018-09-27T08:01:46.877Z,16.64
2018-09-27T08:04:15.480Z,16.68
2018-09-27T08:06:43.942Z,16.71
2018-09-27T08:09:12.473Z,16.75
2018-09-27T08:11:41.058Z,16.71
2018-09-27T08:14:09.813Z,16.54
2018-09-27T08:16:38.357Z,16.54
2018-09-27T08:19:06.894Z,16.61
2018-09-27T08:21:35.411Z,16.66
2018-09-27T08:24:03.997Z,16.88
2018-09-27T08:26:32.572Z,17.33
2018-09-27T08:29:01.068Z,17.81
2018-09-27T08:31:29.592Z,17.78
2018-09-27T08:33:58.129Z,17.73
2018-09-27T08:36:26.681Z,17.69
2018-09-27T08:38:55.189Z,17.66
2018-09-27T08:41:23.781Z,17.47
2018-09-27T08:43:52.314Z,17.22
2018-09-27T08:46:20.870Z,17.18
2018-09-27T08:48:49.399Z,17.27
2018-09-27T08:51:18.041Z,17.47
2018-09-27T08:53:46.562Z,17.69
2018-09-27T08:56:15.221Z,17.86
2018-09-27T08:58:43.735Z,18.05
2018-09-27T09:01:12.281Z,18.21
2018-09-27T09:03:40.884Z,18.44
2018-09-27T09:06:09.368Z,18.57
2018-09-27T09:08:38.030Z,18.62
2018-09-27T09:11:06.884Z,18.51
2018-09-27T09:13:35.475Z,18.40
2018-09-27T09:16:04.544Z,18.46
2018-09-27T09:18:33.071Z,18.48
2018-09-27T09:21:01.717Z,18.56
2018-09-27T09:23:30.231Z,18.63
2018-09-27T09:25:58.779Z,18.85
2018-09-27T09:28:27.359Z,19.13
2018-09-27T09:30:55.873Z,19.35
2018-09-27T09:33:24.804Z,19.49
2018-09-27T09:35:53.393Z,19.41
2018-09-27T09:38:21.926Z,19.02
2018-09-27T09:40:50.518Z,18.83
2018-09-27T09:43:19.038Z,18.91
2018-09-27T09:45:47.629Z,19.07
2018-09-27T09:48:16.146Z,19.02
2018-09-27T09:50:44.673Z,18.88
2018-09-27T09:53:13.194Z,18.81
2018-09-27T09:55:41.749Z,18.95
2018-09-27T09:58:10.325Z,19.13
2018-09-27T10:00:38.977Z,19.36
2018-09-27T10:03:08.690Z,19.63
2018-09-27T10:05:37.290Z,19.82
2018-09-27T10:08:06.119Z,19.91
2018-09-27T10:10:34.666Z,19.82
2018-09-27T10:13:03.190Z,19.74
2018-09-27T10:15:31.772Z,19.68
2018-09-27T10:18:00.694Z,19.63
2018-09-27T10:20:29.354Z,19.27
2018-09-27T10:22:57.910Z,19.11
2018-09-27T10:25:26.467Z,19.16
2018-09-27T10:27:54.986Z,19.43
2018-09-27T10:30:23.522Z,19.89
2018-09-27T10:32:52.074Z,20.38
2018-09-27T10:35:20.586Z,20.78
2018-09-27T10:37:49.591Z,21.01
2018-09-27T10:40:18.103Z,21.01
2018-09-27T10:42:46.642Z,20.91
2018-09-27T10:45:15.160Z,20.55
2018-09-27T10:47:43.722Z,20.55
2018-09-27T10:50:12.209Z,20.60
2018-09-27T10:52:40.734Z,20.73
2018-09-27T10:55:09.233Z,20.93
2018-09-27T10:57:37.775Z,20.75
2018-09-27T11:00:06.433Z,20.57
2018-09-27T11:02:34.962Z,20.36
2018-09-27T11:05:03.477Z,20.62
2018-09-27T11:07:32.036Z,20.69
2018-09-27T11:10:00.526Z,20.82
2018-09-27T11:12:29.062Z,21.15
2018-09-27T11:14:57.558Z,21.49
2018-09-27T11:17:26.087Z,21.76
2018-09-27T11:19:54.598Z,22.03
2018-09-27T11:22:23.126Z,22.10
2018-09-27T11:24:51.606Z,21.94
2018-09-27T11:27:20.134Z,21.80
2018-09-27T11:29:54.058Z,21.73
2018-09-27T11:32:27.774Z,21.57
2018-09-27T11:34:56.267Z,21.48
2018-09-27T11:37:24.776Z,21.48
2018-09-27T11:39:53.286Z,21.72
2018-09-27T11:42:22.100Z,21.81
2018-09-27T11:44:50.587Z,22.29
2018-09-27T11:47:19.239Z,22.77
2018-09-27T11:49:47.835Z,23.05
2018-09-27T11:52:16.394Z,23.32
2018-09-27T11:54:44.902Z,23.38
2018-09-27T11:57:13.436Z,23.23
2018-09-27T11:59:41.933Z,22.95
2018-09-27T12:02:10.470Z,22.82
2018-09-27T12:04:38.975Z,22.59
2018-09-27T12:07:07.513Z,22.22
2018-09-27T12:09:36.042Z,22.18
2018-09-27T12:12:04.713Z,22.25
2018-09-27T12:14:33.200Z,22.17
2018-09-27T12:17:01.744Z,22.20
2018-09-27T12:19:30.714Z,22.27
2018-09-27T12:21:59.312Z,22.24
2018-09-27T12:24:27.824Z,22.16
2018-09-27T12:26:56.373Z,22.09
2018-09-27T12:29:24.872Z,22.11
2018-09-27T12:31:53.441Z,22.25
2018-09-27T12:34:21.994Z,22.39
2018-09-27T12:36:50.504Z,22.77
2018-09-27T12:39:19.027Z,22.75
2018-09-27T12:41:47.570Z,22.49
2018-09-27T12:44:16.109Z,22.26
2018-09-27T12:46:44.638Z,22.18
2018-09-27T12:49:13.184Z,22.58
2018-09-27T12:51:41.779Z,22.78
2018-09-27T12:54:10.369Z,22.82
2018-09-27T12:56:38.861Z,22.69
2018-09-27T12:59:07.733Z,22.64
2018-09-27T13:01:36.269Z,22.33
2018-09-27T13:04:04.856Z,22.23
2018-09-27T13:06:33.330Z,22.09
2018-09-27T13:09:02.014Z,21.99
2018-09-27T13:11:30.423Z,22.05
2018-09-27T13:13:58.948Z,21.96
2018-09-27T13:16:27.446Z,22.13
2018-09-27T13:18:57.942Z,22.19
2018-09-27T13:21:24.795Z,22.34
2018-09-27T13:23:53.339Z,22.08
2018-09-27T13:26:21.845Z,22.02
2018-09-27T13:28:50.381Z,22.22
2018-09-27T13:31:25.673Z,22.31
2018-09-27T13:33:54.296Z,22.47
2018-09-27T13:36:22.786Z,22.60
2018-09-27T13:38:51.304Z,22.62
2018-09-27T13:41:19.929Z,22.61
2018-09-27T13:43:49.310Z,22.53
2018-09-27T13:46:18.231Z,22.55
2018-09-27T13:48:47.028Z,22.35
2018-09-27T13:51:16.769Z,22.30
2018-09-27T13:53:46.956Z,22.31
2018-09-27T13:56:15.460Z,22.45
2018-09-27T13:58:43.973Z,22.51
2018-09-27T14:01:12.476Z,22.53
2018-09-27T14:03:40.988Z,22.59
2018-09-27T14:06:09.524Z,22.64
2018-09-27T14:08:38.039Z,22.74
2018-09-27T14:11:06.555Z,22.81
2018-09-27T14:13:35.098Z,22.79
2018-09-27T14:16:03.619Z,22.82
2018-09-27T14:18:32.140Z,22.63
2018-09-27T14:21:00.652Z,22.51
2018-09-27T14:23:29.198Z,22.46
2018-09-27T14:25:57.705Z,22.49
2018-09-27T14:28:26.229Z,22.46
2018-09-27T14:30:54.783Z,22.57
2018-09-27T14:33:23.316Z,22.52
2018-09-27T14:35:51.826Z,22.52
2018-09-27T14:38:20.377Z,22.51
2018-09-27T14:40:48.888Z,22.47
2018-09-27T14:43:17.375Z,22.34
2018-09-27T14:45:45.895Z,22.30
2018-09-27T14:48:14.385Z,22.39
2018-09-27T14:50:42.900Z,22.63
2018-09-27T14:53:11.389Z,22.81
2018-09-27T14:55:39.919Z,22.91
2018-09-27T14:58:08.444Z,22.85
2018-09-27T15:00:37.007Z,22.57
2018-09-27T15:03:05.906Z,22.41
2018-09-27T15:05:34.433Z,22.48
2018-09-27T15:08:02.940Z,22.55
2018-09-27T15:10:31.504Z,22.41
2018-09-27T15:12:59.990Z,22.17
2018-09-27T15:15:28.518Z,21.90
2018-09-27T15:17:57.089Z,21.88
2018-09-27T15:20:25.555Z,22.01
2018-09-27T15:22:54.095Z,22.19
2018-09-27T15:25:22.627Z,22.28
2018-09-27T15:27:51.118Z,22.30
2018-09-27T15:30:19.650Z,22.21
2018-09-27T15:32:48.174Z,22.14
2018-09-27T15:35:16.988Z,22.06
2018-09-27T15:37:45.504Z,21.95
2018-09-27T15:40:14.043Z,21.90
2018-09-27T15:42:42.544Z,21.84
2018-09-27T15:45:11.073Z,21.70
2018-09-27T15:47:39.566Z,21.64
2018-09-27T15:50:08.117Z,21.62
2018-09-27T15:52:36.632Z,21.57
2018-09-27T15:55:05.177Z,21.59
2018-09-27T15:57:33.697Z,21.50
2018-09-27T16:00:02.224Z,21.40
2018-09-27T16:02:30.724Z,21.37
2018-09-27T16:04:59.250Z,21.30
2018-09-27T16:07:27.737Z,21.22
2018-09-27T16:09:56.273Z,21.13
2018-09-27T16:12:24.838Z,21.07
2018-09-27T16:14:53.505Z,21.01
2018-09-27T16:17:22.115Z,20.96
2018-09-27T16:19:50.763Z,20.87
2018-09-27T16:22:19.295Z,20.82
2018-09-27T16:24:47.859Z,20.76
2018-09-27T16:27:16.353Z,20.71
2018-09-27T16:29:44.985Z,20.71
2018-09-27T16:32:13.575Z,20.66
2018-09-27T16:34:42.970Z,20.62
2018-09-27T16:37:11.482Z,20.57
2018-09-27T16:39:39.960Z,20.53
2018-09-27T16:42:08.632Z,20.49
2018-09-27T16:44:37.275Z,20.48
2018-09-27T16:47:05.838Z,20.44
2018-09-27T16:49:34.358Z,20.40
2018-09-27T16:52:02.887Z,20.36
2018-09-27T16:54:31.430Z,20.30
2018-09-27T16:57:00.016Z,20.29
2018-09-27T16:59:28.682Z,20.25
2018-09-27T17:01:57.297Z,20.20
2018-09-27T17:04:25.759Z,20.13
2018-09-27T17:06:54.277Z,20.09
2018-09-27T17:09:22.778Z,20.07
2018-09-27T17:11:51.313Z,20.05
2018-09-27T17:14:19.826Z,20.02
2018-09-27T17:16:48.364Z,20.02
2018-09-27T17:19:16.869Z,20.00
2018-09-27T17:21:45.394Z,19.99
2018-09-27T17:24:13.970Z,19.95
2018-09-27T17:26:42.512Z,19.91
2018-09-27T17:29:11.040Z,19.85
2018-09-27T17:31:39.590Z,19.85
2018-09-27T17:34:08.353Z,19.82
2018-09-27T17:36:36.878Z,19.79
2018-09-27T17:39:06.721Z,19.74
2018-09-27T17:41:35.270Z,19.67
2018-09-27T17:44:03.833Z,19.61
2018-09-27T17:46:32.453Z,19.55
2018-09-27T17:49:00.937Z,19.53
2018-09-27T17:51:29.475Z,19.50
2018-09-27T17:53:57.978Z,19.47
2018-09-27T17:56:26.522Z,19.41
2018-09-27T17:58:55.031Z,19.35
2018-09-27T18:01:23.572Z,19.27
2018-09-27T18:03:52.081Z,19.18
2018-09-27T18:06:20.610Z,19.11
2018-09-27T18:08:49.142Z,19.02
2018-09-27T18:11:17.666Z,18.91
2018-09-27T18:13:46.216Z,18.82
2018-09-27T18:16:14.745Z,18.71
2018-09-27T18:18:43.274Z,18.61
2018-09-27T18:21:11.903Z,18.52
2018-09-27T18:23:40.619Z,18.40
2018-09-27T18:26:09.357Z,18.27
2018-09-27T18:28:37.952Z,18.19
2018-09-27T18:31:06.576Z,18.16
2018-09-27T18:33:35.121Z,18.16
2018-09-27T18:36:03.648Z,18.17
2018-09-27T18:38:32.148Z,18.19
2018-09-27T18:41:00.712Z,18.22
2018-09-27T18:43:29.238Z,18.24
2018-09-27T18:45:57.742Z,18.24
2018-09-27T18:48:26.279Z,18.21
2018-09-27T18:50:54.789Z,18.14
2018-09-27T18:53:23.317Z,18.04
2018-09-27T18:55:51.822Z,17.92
2018-09-27T18:58:20.361Z,17.78
2018-09-27T19:00:48.870Z,17.66
2018-09-27T19:03:17.409Z,17.55
2018-09-27T19:05:45.922Z,17.49
2018-09-27T19:08:14.444Z,17.46
2018-09-27T19:10:42.947Z,17.42
2018-09-27T19:13:11.475Z,17.38
2018-09-27T19:15:39.983Z,17.32
2018-09-27T19:18:08.615Z,17.27
2018-09-27T19:20:37.186Z,17.21
2018-09-27T19:23:05.726Z,17.14
2018-09-27T19:25:34.308Z,17.09
2018-09-27T19:28:02.857Z,17.06
2018-09-27T19:30:31.363Z,17.02
2018-09-27T19:32:59.929Z,16.95
2018-09-27T19:35:28.480Z,16.85
2018-09-27T19:37:57.222Z,16.74
2018-09-27T19:40:25.830Z,16.63
2018-09-27T19:42:54.417Z,16.53
2018-09-27T19:45:22.944Z,16.43
2018-09-27T19:47:51.546Z,16.33
2018-09-27T19:50:20.053Z,16.22
2018-09-27T19:52:48.613Z,16.11
2018-09-27T19:55:17.254Z,16.04
2018-09-27T19:57:45.991Z,15.96
2018-09-27T20:00:14.542Z,15.91
2018-09-27T20:02:43.223Z,15.88
2018-09-27T20:05:11.668Z,15.89
2018-09-27T20:07:40.191Z,15.85
2018-09-27T20:10:08.728Z,15.74
2018-09-27T20:12:37.270Z,15.62
2018-09-27T20:15:05.843Z,15.50
2018-09-27T20:17:34.373Z,15.37
2018-09-27T20:20:02.891Z,15.30
2018-09-27T20:22:31.426Z,15.24
2018-09-27T20:25:00.046Z,15.20
2018-09-27T20:27:28.566Z,15.14
2018-09-27T20:29:57.066Z,15.09
2018-09-27T20:32:25.616Z,14.92
2018-09-27T20:34:54.168Z,14.78
2018-09-27T20:37:22.691Z,14.61
2018-09-27T20:39:51.203Z,14.49
2018-09-27T20:42:19.724Z,14.41
2018-09-27T20:44:48.215Z,14.37
2018-09-27T20:47:16.734Z,14.37
2018-09-27T20:49:45.284Z,14.39
2018-09-27T20:52:13.803Z,14.42
2018-09-27T20:54:42.403Z,14.44
2018-09-27T20:57:10.906Z,14.48
2018-09-27T20:59:39.430Z,14.49
2018-09-27T21:02:08.014Z,14.42
2018-09-27T21:04:36.539Z,14.29
2018-09-27T21:07:05.046Z,14.22
2018-09-27T21:09:33.586Z,14.22
2018-09-27T21:12:02.085Z,14.26
2018-09-27T21:14:30.629Z,14.31
2018-09-27T21:16:59.129Z,14.35
2018-09-27T21:19:27.717Z,14.37
2018-09-27T21:21:56.206Z,14.37
2018-09-27T21:24:24.721Z,14.39
2018-09-27T21:26:54.666Z,14.37
2018-09-27T21:29:24.146Z,14.36
2018-09-27T21:31:52.745Z,14.34
2018-09-27T21:34:21.345Z,14.28
2018-09-27T21:36:49.830Z,14.25
2018-09-27T21:39:18.353Z,14.22
2018-09-27T21:41:46.846Z,14.22
2018-09-27T21:44:15.371Z,14.22
2018-09-27T21:46:43.861Z,14.26
2018-09-27T21:49:12.390Z,14.27
2018-09-27T21:51:40.905Z,14.23
2018-09-27T21:54:09.420Z,14.21
2018-09-27T21:56:37.948Z,14.22
2018-09-27T21:59:06.492Z,14.25
2018-09-27T22:01:34.980Z,14.24
2018-09-27T22:04:03.505Z,14.21
2018-09-27T22:06:32.010Z,14.18
2018-09-27T22:09:00.529Z,14.18
2018-09-27T22:11:29.029Z,14.19
2018-09-27T22:13:57.553Z,14.17
2018-09-27T22:16:26.049Z,14.14
2018-09-27T22:18:54.558Z,14.11
2018-09-27T22:21:23.061Z,14.08
2018-09-27T22:23:51.584Z,14.07
2018-09-27T22:26:20.093Z,14.05
2018-09-27T22:28:48.610Z,14.02
2018-09-27T22:31:17.126Z,13.97
2018-09-27T22:33:45.672Z,13.99
2018-09-27T22:36:14.181Z,13.99
2018-09-27T22:38:42.702Z,14.00
2018-09-27T22:41:11.209Z,14.01
2018-09-27T22:43:39.727Z,14.01
2018-09-27T22:46:08.227Z,13.98
2018-09-27T22:48:36.722Z,13.97
2018-09-27T22:51:05.255Z,13.96
2018-09-27T22:53:33.790Z,13.94
2018-09-27T22:56:02.318Z,13.89
2018-09-27T22:58:30.814Z,13.87
2018-09-27T23:00:59.329Z,13.84
2018-09-27T23:03:27.835Z,13.86
2018-09-27T23:05:56.357Z,13.97
2018-09-27T23:08:24.902Z,14.17
2018-09-27T23:10:53.429Z,14.22
2018-09-27T23:13:21.949Z,14.28
2018-09-27T23:15:50.499Z,14.33
2018-09-27T23:18:19.002Z,14.35
2018-09-27T23:20:47.537Z,14.42
2018-09-27T23:23:16.034Z,14.46
2018-09-27T23:25:44.584Z,14.54
2018-09-27T23:28:13.182Z,14.63
2018-09-27T23:30:41.701Z,14.64
2018-09-27T23:33:10.225Z,14.59
2018-09-27T23:35:38.745Z,14.51
2018-09-27T23:38:07.257Z,14.47
2018-09-27T23:40:35.776Z,14.41
2018-09-27T23:43:04.322Z,14.33
2018-09-27T23:45:32.849Z,14.36
2018-09-27T23:48:01.349Z,14.44
2018-09-27T23:50:29.882Z,14.41
2018-09-27T23:52:58.402Z,14.38
2018-09-27T23:55:26.927Z,14.43
2018-09-27T23:57:55.497Z,14.53
